Time;durP1;ratioP1;P1;durP2;ratioP2;P2;SDS_P1;SDS_P2;PMS_P1;PMS_P2;Temp;Humidity;BMP_temperature;BMP_pressure;BME280_temperature;BME280_humidity;BME280_pressure;Samples;Min_cycle;Max_cycle;Signal;HPM_P1;HPM_P2
2021/03/20 00:01:24;;;;;;;;;;;;;;;5.54;66.95;102331.69;4718341;30;19926;-72
2021/03/20 00:03:52;;;;;;;;;;;;;;;5.49;67.18;102337.03;4733336;30;19926;-72
2021/03/20 00:06:19;;;;;;;;;;;;;;;5.45;67.25;102338.56;4732483;30;20372;-71
2021/03/20 00:08:46;;;;;;;;;;;;;;;5.49;67.16;102335.09;4728184;30;19926;-72
2021/03/20 00:11:12;;;;;;;;;;;;;;;5.62;66.93;102337.59;4747483;30;20291;-71
2021/03/20 00:13:39;;;;;;;;;;;;;;;5.41;67.69;102343.69;4747199;30;20384;-70
2021/03/20 00:16:06;;;;;;;;;;;;;;;5.24;68.35;102341.91;4747265;30;19926;-72
2021/03/20 00:18:33;;;;;;;;;;;;;;;5.34;68.42;102339.41;4717882;30;19927;-72
2021/03/20 00:21:00;;;;;;;;;;;;;;;5.40;68.04;102346.66;4733293;30;19933;-73
2021/03/20 00:23:27;;;;;;;;;;;;;;;5.19;68.79;102352.72;4732859;30;19934;-72
2021/03/20 00:25:53;;;;;;;;;;;;;;;5.07;69.23;102340.97;4733140;30;19931;-72
2021/03/20 00:28:22;;;;;;;;;;;;;;;5.30;68.52;102346.44;4738276;30;19926;-72
2021/03/20 00:30:54;;;;;;;;;;;;;;;5.28;68.33;102345.84;4750479;30;19926;-72
2021/03/20 00:33:23;;;;;;;;;;;;;;;5.41;68.08;102337.38;4735455;30;19934;-70
2021/03/20 00:35:49;;;;;;;;;;;;;;;5.54;67.57;102329.75;4735350;30;19925;-72
2021/03/20 00:38:17;;;;;;;;;;;;;;;5.44;68.02;102335.00;4734741;30;19926;-71
2021/03/20 00:40:44;;;;;;;;;;;;;;;5.27;68.90;102335.97;4737348;30;19930;-72
2021/03/20 00:43:11;;;;;;;;;;;;;;;5.24;68.54;102329.09;4735898;30;19939;-72
2021/03/20 00:45:38;;;;;;;;;;;;;;;5.01;69.58;102331.84;4735846;30;20299;-73
2021/03/20 00:48:08;;;;;;;;;;;;;;;5.05;69.59;102329.47;4722138;30;20299;-72
2021/03/20 00:50:35;;;;;;;;;;;;;;;5.15;68.99;102338.72;4753582;30;19953;-74
2021/03/20 00:53:04;;;;;;;;;;;;;;;5.27;68.75;102336.81;4738860;30;20311;-71
2021/03/20 00:55:30;;;;;;;;;;;;;;;5.08;68.99;102328.97;4739041;30;19926;-73
2021/03/20 00:57:57;;;;;;;;;;;;;;;4.93;69.88;102334.94;4745297;30;19925;-72
2021/03/20 01:00:25;;;;;;;;;;;;;;;5.11;69.73;102342.19;4707096;30;19953;-72
2021/03/20 01:02:51;;;;;;;;;;;;;;;5.17;69.98;102342.06;4721004;30;19934;-72
2021/03/20 01:05:18;;;;;;;;;;;;;;;5.20;69.37;102347.03;4735775;30;20387;-72
2021/03/20 01:07:45;;;;;;;;;;;;;;;4.92;70.71;102355.09;4721515;30;19933;-71
2021/03/20 01:10:15;;;;;;;;;;;;;;;5.02;70.39;102349.88;4737634;30;19937;-73
2021/03/20 01:12:42;;;;;;;;;;;;;;;5.19;69.73;102359.03;4738395;30;20276;-72
2021/03/20 01:15:11;;;;;;;;;;;;;;;5.20;69.97;102357.13;4739182;30;19926;-72
2021/03/20 01:17:38;;;;;;;;;;;;;;;5.00;70.59;102356.66;4723362;30;19933;-72
2021/03/20 01:20:06;;;;;;;;;;;;;;;4.94;70.85;102355.69;4753261;30;19933;-71
2021/03/20 01:22:33;;;;;;;;;;;;;;;4.82;71.55;102362.19;4749621;30;20379;-73
2021/03/20 01:25:00;;;;;;;;;;;;;;;4.85;71.50;102368.03;4734563;30;19927;-72
2021/03/20 01:27:26;;;;;;;;;;;;;;;4.83;71.55;102361.97;4721048;30;19926;-73
2021/03/20 01:29:53;;;;;;;;;;;;;;;4.93;71.61;102370.44;4735688;30;19927;-71
2021/03/20 01:32:20;;;;;;;;;;;;;;;4.78;71.86;102366.50;4721395;30;19946;-71
2021/03/20 01:34:47;;;;;;;;;;;;;;;4.91;71.93;102355.34;4735769;30;20002;-71
2021/03/20 01:37:16;;;;;;;;;;;;;;;5.06;71.06;102356.53;4720036;30;19927;-73
2021/03/20 01:39:48;;;;;;;;;;;;;;;4.98;71.35;102358.78;4736614;30;20029;-72
2021/03/20 01:42:15;;;;;;;;;;;;;;;4.78;72.11;102364.56;4736723;30;19937;-71
2021/03/20 01:44:42;;;;;;;;;;;;;;;4.74;72.31;102357.09;4737709;30;20383;-71
2021/03/20 01:47:10;;;;;;;;;;;;;;;4.57;72.87;102368.69;4752580;30;19933;-70
2021/03/20 01:49:37;;;;;;;;;;;;;;;4.63;73.22;102366.09;4751151;30;19926;-72
2021/03/20 01:52:09;;;;;;;;;;;;;;;4.91;72.39;102360.78;4751394;30;19929;-72
2021/03/20 01:54:48;;;;;;;;;;;;;;;4.70;72.59;102355.91;4736698;30;20406;-72
2021/03/20 01:57:15;;;;;;;;;;;;;;;4.68;72.46;102367.06;4741525;30;19941;-71
2021/03/20 01:59:42;;;;;;;;;;;;;;;4.45;73.85;102362.38;4754858;30;19926;-71
2021/03/20 02:02:09;;;;;;;;;;;;;;;4.64;73.03;102362.31;4755339;30;19926;-71
2021/03/20 02:04:36;;;;;;;;;;;;;;;4.76;72.61;102357.69;4740501;30;20295;-72
2021/03/20 02:07:03;;;;;;;;;;;;;;;4.66;72.61;102349.22;4719880;30;19927;-72
2021/03/20 02:09:29;;;;;;;;;;;;;;;4.76;72.58;102352.25;4735494;30;19926;-71
2021/03/20 02:12:02;;;;;;;;;;;;;;;4.65;73.07;102351.16;4719757;30;19933;-71
2021/03/20 02:14:42;;;;;;;;;;;;;;;4.64;72.88;102354.13;4749647;30;20697;-72
2021/03/20 02:17:28;;;;;;;;;;;;;;;4.46;73.57;102344.13;4751983;30;19933;-70
2021/03/20 02:19:58;;;;;;;;;;;;;;;4.54;73.60;102344.59;4737796;30;20407;-71
2021/03/20 02:22:29;;;;;;;;;;;;;;;4.66;73.09;102354.69;4753360;30;19937;-72
2021/03/20 02:25:07;;;;;;;;;;;;;;;4.86;72.53;102342.41;4734241;30;19926;-72
2021/03/20 02:27:56;;;;;;;;;;;;;;;4.91;71.90;102347.97;4720144;30;19934;-71
2021/03/20 02:30:58;;;;;;;;;;;;;;;4.90;72.01;102351.75;4745591;30;19927;-73
2021/03/20 02:33:28;;;;;;;;;;;;;;;4.80;72.12;102342.50;4750342;30;20295;-73
2021/03/20 02:35:54;;;;;;;;;;;;;;;4.68;72.82;102342.50;4736406;30;20708;-72
2021/03/20 02:38:21;;;;;;;;;;;;;;;4.54;72.94;102347.34;4750933;30;19925;-72
2021/03/20 02:40:48;;;;;;;;;;;;;;;4.49;73.43;102344.47;4736129;30;19926;-72
2021/03/20 02:43:17;;;;;;;;;;;;;;;4.64;72.97;102346.75;4750964;30;20330;-72
2021/03/20 02:45:46;;;;;;;;;;;;;;;4.63;73.33;102342.38;4750943;30;19930;-72
2021/03/20 02:48:33;;;;;;;;;;;;;;;4.37;73.96;102345.50;4736102;30;19933;-71
2021/03/20 02:51:01;;;;;;;;;;;;;;;4.35;74.38;102342.16;4749545;30;20296;-70
2021/03/20 02:53:33;;;;;;;;;;;;;;;4.32;74.23;102348.09;4750006;30;19934;-70
2021/03/20 02:56:01;;;;;;;;;;;;;;;4.13;74.78;102336.41;4735928;30;19926;-71
2021/03/20 02:58:45;;;;;;;;;;;;;;;4.27;74.54;102339.78;4723817;30;19926;-73
2021/03/20 03:01:12;;;;;;;;;;;;;;;4.25;74.52;102337.25;4718365;30;19927;-71
2021/03/20 03:03:39;;;;;;;;;;;;;;;4.34;74.24;102330.41;4724968;30;19926;-71
2021/03/20 03:06:30;;;;;;;;;;;;;;;4.36;74.13;102330.19;4735174;30;20367;-72
2021/03/20 03:09:02;;;;;;;;;;;;;;;4.36;73.93;102332.91;4698255;30;19938;-72
2021/03/20 03:11:53;;;;;;;;;;;;;;;4.32;73.85;102338.00;4697719;30;19927;-72
2021/03/20 03:14:27;;;;;;;;;;;;;;;4.18;74.61;102333.84;4664092;30;19927;-72
2021/03/20 03:16:54;;;;;;;;;;;;;;;4.43;74.05;102339.94;4663764;30;19950;-72
2021/03/20 03:19:26;;;;;;;;;;;;;;;4.20;74.33;102334.41;4649715;30;19928;-73
2021/03/20 03:21:53;;;;;;;;;;;;;;;4.07;75.15;102339.22;4649560;30;20010;-70
2021/03/20 03:24:21;;;;;;;;;;;;;;;4.16;74.98;102335.97;4663108;30;20455;-71
2021/03/20 03:26:49;;;;;;;;;;;;;;;4.34;74.37;102327.69;4648366;30;19928;-71
2021/03/20 03:29:18;;;;;;;;;;;;;;;4.47;73.74;102335.69;4649636;30;19928;-70
2021/03/20 03:31:45;;;;;;;;;;;;;;;4.41;73.84;102333.06;4648877;30;19946;-71
2021/03/20 03:34:23;;;;;;;;;;;;;;;4.23;74.35;102333.97;4662991;30;20389;-72
2021/03/20 03:36:55;;;;;;;;;;;;;;;4.21;74.49;102338.81;4663514;30;19935;-71
2021/03/20 03:39:24;;;;;;;;;;;;;;;4.43;74.19;102339.94;4677412;30;19935;-71
2021/03/20 03:41:51;;;;;;;;;;;;;;;4.19;74.36;102343.66;4663430;30;20397;-71
2021/03/20 03:44:18;;;;;;;;;;;;;;;4.48;73.74;102342.78;4677061;30;19928;-72
2021/03/20 03:46:45;;;;;;;;;;;;;;;4.46;73.61;102344.91;4692578;30;20020;-72
2021/03/20 03:49:13;;;;;;;;;;;;;;;4.31;74.07;102347.25;4700425;30;20388;-71
2021/03/20 03:51:40;;;;;;;;;;;;;;;4.31;74.34;102346.41;4721404;30;19934;-71
2021/03/20 03:54:07;;;;;;;;;;;;;;;4.15;74.84;102347.09;4742202;30;19933;-72
2021/03/20 03:56:51;;;;;;;;;;;;;;;4.08;75.40;102352.63;4733533;30;19927;-72
2021/03/20 03:59:40;;;;;;;;;;;;;;;3.94;75.94;102351.13;4733098;30;20303;-72
2021/03/20 04:02:22;;;;;;;;;;;;;;;3.80;76.56;102354.28;4733270;30;19937;-72
2021/03/20 04:05:01;;;;;;;;;;;;;;;3.74;76.80;102356.03;4747184;30;20406;-71
2021/03/20 04:07:39;;;;;;;;;;;;;;;3.80;76.63;102359.72;4735922;30;19926;-71
2021/03/20 04:10:05;;;;;;;;;;;;;;;4.13;76.09;102360.94;4736480;30;19941;-71
2021/03/20 04:12:42;;;;;;;;;;;;;;;4.34;74.92;102365.06;4751168;30;19933;-72
2021/03/20 04:15:15;;;;;;;;;;;;;;;4.38;74.65;102363.53;4750949;30;19926;-71
2021/03/20 04:18:13;;;;;;;;;;;;;;;4.51;73.85;102363.34;4751413;30;19926;-72
2021/03/20 04:20:43;;;;;;;;;;;;;;;4.46;73.43;102374.94;4699718;30;19931;-71
2021/03/20 04:23:10;;;;;;;;;;;;;;;4.37;74.08;102379.09;4697397;30;19943;-71
2021/03/20 04:25:54;;;;;;;;;;;;;;;4.12;75.01;102386.56;4697286;30;19927;-70
2021/03/20 04:28:44;;;;;;;;;;;;;;;3.98;75.83;102381.50;4697114;30;19934;-71
2021/03/20 04:31:13;;;;;;;;;;;;;;;4.11;74.92;102394.97;4713261;30;20379;-71
2021/03/20 04:33:44;;;;;;;;;;;;;;;3.91;75.74;102387.03;4716461;30;20295;-70
2021/03/20 04:36:23;;;;;;;;;;;;;;;3.99;75.64;102392.16;4716180;30;19927;-71
2021/03/20 04:38:49;;;;;;;;;;;;;;;3.93;75.78;102392.25;4702243;30;19927;-71
2021/03/20 04:41:16;;;;;;;;;;;;;;;3.90;75.36;102379.09;4717244;30;19937;-71
2021/03/20 04:43:43;;;;;;;;;;;;;;;3.88;76.08;102389.38;4731897;30;19957;-72
2021/03/20 04:46:19;;;;;;;;;;;;;;;4.17;75.11;102388.56;4716476;30;20303;-71
2021/03/20 04:48:53;;;;;;;;;;;;;;;4.24;74.71;102381.97;4716771;30;20041;-71
2021/03/20 04:51:28;;;;;;;;;;;;;;;4.26;74.61;102377.13;4716500;30;20391;-71
2021/03/20 04:54:08;;;;;;;;;;;;;;;4.56;73.39;102377.94;4684610;30;20288;-71
2021/03/20 04:56:38;;;;;;;;;;;;;;;4.49;73.35;102379.09;4694768;30;19927;-71
2021/03/20 04:59:11;;;;;;;;;;;;;;;4.51;73.33;102377.81;4733432;30;19935;-72
2021/03/20 05:01:39;;;;;;;;;;;;;;;4.63;72.83;102379.72;4733256;30;19933;-72
2021/03/20 05:04:15;;;;;;;;;;;;;;;4.41;73.45;102372.06;4734140;30;19953;-72
2021/03/20 05:06:42;;;;;;;;;;;;;;;4.39;73.50;102387.84;4734385;30;19936;-72
2021/03/20 05:09:13;;;;;;;;;;;;;;;4.32;73.78;102392.56;4706451;30;20409;-72
2021/03/20 05:11:47;;;;;;;;;;;;;;;4.39;73.97;102387.03;4735083;30;19926;-71
2021/03/20 05:14:14;;;;;;;;;;;;;;;4.12;74.69;102396.63;4749753;30;19925;-73
2021/03/20 05:16:43;;;;;;;;;;;;;;;3.90;75.77;102390.84;4749938;30;20379;-70
2021/03/20 05:19:10;;;;;;;;;;;;;;;3.82;76.56;102395.75;4735222;30;20378;-72
2021/03/20 05:21:38;;;;;;;;;;;;;;;3.65;77.53;102400.97;4732254;30;19926;-71
2021/03/20 05:24:06;;;;;;;;;;;;;;;3.93;76.74;102397.72;4735269;30;19934;-72
2021/03/20 05:26:33;;;;;;;;;;;;;;;4.00;76.41;102406.63;4720424;30;19933;-71
2021/03/20 05:29:00;;;;;;;;;;;;;;;3.63;78.02;102405.00;4721031;30;19938;-72
2021/03/20 05:31:30;;;;;;;;;;;;;;;3.80;77.59;102406.06;4750897;30;19930;-72
2021/03/20 05:33:57;;;;;;;;;;;;;;;3.72;78.36;102399.00;4752474;30;20398;-71
2021/03/20 05:36:24;;;;;;;;;;;;;;;3.53;78.93;102407.41;4737753;30;19926;-72
2021/03/20 05:38:51;;;;;;;;;;;;;;;3.60;79.24;102409.00;4753826;30;20387;-71
2021/03/20 05:41:33;;;;;;;;;;;;;;;3.60;79.16;102406.28;4739444;30;19926;-71
2021/03/20 05:44:05;;;;;;;;;;;;;;;3.61;79.09;102404.41;4736367;30;19926;-72
2021/03/20 05:46:39;;;;;;;;;;;;;;;3.61;79.61;102418.00;4720093;30;19926;-71
2021/03/20 05:49:12;;;;;;;;;;;;;;;3.63;79.59;102418.63;4720226;30;20256;-72
2021/03/20 05:51:58;;;;;;;;;;;;;;;3.76;79.34;102416.59;4751639;30;19926;-71
2021/03/20 05:54:44;;;;;;;;;;;;;;;3.77;79.33;102420.13;4752633;30;19926;-72
2021/03/20 05:57:23;;;;;;;;;;;;;;;3.87;78.93;102417.72;4754454;30;19933;-73
2021/03/20 05:59:54;;;;;;;;;;;;;;;3.96;78.40;102424.50;4755499;30;20278;-71
2021/03/20 06:02:47;;;;;;;;;;;;;;;3.76;79.50;102430.22;4755655;30;20302;-72
2021/03/20 06:05:17;;;;;;;;;;;;;;;3.80;79.49;102428.66;4754939;30;19925;-71
2021/03/20 06:07:50;;;;;;;;;;;;;;;4.06;78.61;102439.25;4735608;30;20578;-72
2021/03/20 06:10:23;;;;;;;;;;;;;;;3.76;80.00;102430.22;4734413;30;19930;-71
2021/03/20 06:12:50;;;;;;;;;;;;;;;3.61;80.88;102439.81;4720575;30;20299;-72
2021/03/20 06:15:35;;;;;;;;;;;;;;;3.47;82.06;102435.56;4735600;30;19941;-70
2021/03/20 06:18:07;;;;;;;;;;;;;;;3.68;80.88;102432.41;4745405;30;19926;-71
2021/03/20 06:21:00;;;;;;;;;;;;;;;3.33;82.49;102430.22;4737682;30;19933;-72
2021/03/20 06:23:46;;;;;;;;;;;;;;;3.50;82.35;102440.53;4736550;30;19942;-71
2021/03/20 06:26:23;;;;;;;;;;;;;;;3.59;81.66;102436.47;4737346;30;19926;-72
2021/03/20 06:28:54;;;;;;;;;;;;;;;3.88;80.80;102439.28;4736842;30;20389;-71
2021/03/20 06:31:40;;;;;;;;;;;;;;;3.98;79.49;102455.94;4738272;30;19933;-72
2021/03/20 06:34:15;;;;;;;;;;;;;;;3.88;80.06;102450.19;4752064;30;19941;-72
2021/03/20 06:36:43;;;;;;;;;;;;;;;4.00;79.29;102451.09;4751159;30;20398;-71
2021/03/20 06:39:16;;;;;;;;;;;;;;;4.08;79.20;102445.31;4734381;30;19938;-71
2021/03/20 06:41:53;;;;;;;;;;;;;;;4.36;77.95;102452.94;4735746;30;19937;-71
2021/03/20 06:44:25;;;;;;;;;;;;;;;3.91;78.86;102441.56;4719936;30;19927;-70
2021/03/20 06:46:52;;;;;;;;;;;;;;;3.93;78.79;102439.44;4721374;30;19927;-71
2021/03/20 06:49:22;;;;;;;;;;;;;;;4.06;77.92;102450.16;4736453;30;19926;-72
2021/03/20 06:51:49;;;;;;;;;;;;;;;3.75;78.14;102444.06;4751265;30;20307;-71
2021/03/20 06:54:17;;;;;;;;;;;;;;;3.90;78.32;102436.34;4737165;30;19933;-71
2021/03/20 06:56:44;;;;;;;;;;;;;;;4.25;77.29;102443.63;4751350;30;20394;-71
2021/03/20 06:59:11;;;;;;;;;;;;;;;4.21;76.36;102434.28;4766822;30;20306;-72
2021/03/20 07:01:47;;;;;;;;;;;;;;;4.18;76.58;102444.81;4753871;30;19926;-72
2021/03/20 07:04:27;;;;;;;;;;;;;;;4.18;73.97;102450.25;4770620;30;20366;-73
2021/03/20 07:06:57;;;;;;;;;;;;;;;4.17;73.66;102441.22;4767197;30;19925;-72
2021/03/20 07:09:24;;;;;;;;;;;;;;;4.36;73.35;102450.22;4733776;30;19942;-71
2021/03/20 07:12:11;;;;;;;;;;;;;;;4.50;71.67;102440.78;4733413;30;19937;-72
2021/03/20 07:14:40;;;;;;;;;;;;;;;4.71;71.99;102445.72;4733044;30;19937;-73
2021/03/20 07:17:23;;;;;;;;;;;;;;;4.68;71.68;102457.13;4736897;30;19926;-71
2021/03/20 07:19:57;;;;;;;;;;;;;;;4.92;70.49;102458.00;4752256;30;19934;-71
2021/03/20 07:22:29;;;;;;;;;;;;;;;4.92;70.87;102466.19;4736756;30;20394;-72
2021/03/20 07:24:55;;;;;;;;;;;;;;;4.95;71.53;102471.22;4736727;30;19934;-73
2021/03/20 07:27:28;;;;;;;;;;;;;;;4.91;71.77;102461.81;4747985;30;20307;-73
2021/03/20 07:29:56;;;;;;;;;;;;;;;4.95;71.61;102471.22;4719114;30;19940;-71
2021/03/20 07:32:22;;;;;;;;;;;;;;;4.87;71.99;102469.63;4718454;30;20384;-73
2021/03/20 07:34:50;;;;;;;;;;;;;;;5.02;71.98;102461.81;4718559;30;19934;-73
2021/03/20 07:37:16;;;;;;;;;;;;;;;5.12;71.64;102467.56;4738564;30;19933;-73
2021/03/20 07:39:48;;;;;;;;;;;;;;;5.13;71.97;102462.91;4752541;30;19946;-72
2021/03/20 07:42:30;;;;;;;;;;;;;;;4.60;73.79;102476.56;4750467;30;20367;-71
2021/03/20 07:44:59;;;;;;;;;;;;;;;4.62;73.85;102481.78;4751591;30;19941;-70
2021/03/20 07:47:30;;;;;;;;;;;;;;;4.51;74.83;102484.22;4749509;30;20474;-71
2021/03/20 07:50:16;;;;;;;;;;;;;;;4.02;76.95;102478.13;4738045;30;19926;-72
2021/03/20 07:52:43;;;;;;;;;;;;;;;4.34;76.46;102485.09;4752341;30;20271;-73
2021/03/20 07:55:15;;;;;;;;;;;;;;;4.19;76.33;102487.34;4722883;30;19926;-72
2021/03/20 07:57:55;;;;;;;;;;;;;;;4.18;77.40;102482.97;4759225;30;19926;-72
2021/03/20 08:00:31;;;;;;;;;;;;;;;4.28;76.83;102489.56;4754204;30;19925;-72
2021/03/20 08:03:06;;;;;;;;;;;;;;;4.15;77.31;102486.16;4735669;30;19930;-73
2021/03/20 08:05:34;;;;;;;;;;;;;;;4.43;76.63;102492.72;4735931;30;19926;-72
2021/03/20 08:08:08;;;;;;;;;;;;;;;4.66;75.65;102477.50;4718188;30;19930;-72
2021/03/20 08:10:35;;;;;;;;;;;;;;;4.58;75.80;102490.41;4738735;30;19934;-71
2021/03/20 08:13:14;;;;;;;;;;;;;;;4.65;75.23;102484.88;4751920;30;19926;-71
2021/03/20 08:15:42;;;;;;;;;;;;;;;4.49;75.70;102491.81;4742483;30;19926;-72
2021/03/20 08:18:29;;;;;;;;;;;;;;;4.40;76.04;102493.19;4729624;30;19937;-72
2021/03/20 08:21:03;;;;;;;;;;;;;;;4.33;76.73;102486.13;4735636;30;19943;-72
2021/03/20 08:23:30;;;;;;;;;;;;;;;4.58;75.76;102497.78;4745360;30;20310;-72
2021/03/20 08:25:58;;;;;;;;;;;;;;;4.62;75.81;102498.97;4751385;30;19945;-73
2021/03/20 08:28:28;;;;;;;;;;;;;;;4.85;74.98;102501.78;4725019;30;19926;-76
2021/03/20 08:30:59;;;;;;;;;;;;;;;4.90;74.50;102493.72;4732255;30;19949;-72
2021/03/20 08:33:29;;;;;;;;;;;;;;;4.64;75.41;102496.84;4718316;30;19934;-72
2021/03/20 08:36:03;;;;;;;;;;;;;;;4.62;76.25;102498.16;4722184;30;19974;-73
2021/03/20 08:38:39;;;;;;;;;;;;;;;4.66;75.49;102494.72;4734340;30;19945;-70
2021/03/20 08:41:09;;;;;;;;;;;;;;;4.75;75.00;102504.25;4736251;30;19934;-72
2021/03/20 08:43:48;;;;;;;;;;;;;;;4.85;74.75;102507.25;4735079;30;19926;-72
2021/03/20 08:46:38;;;;;;;;;;;;;;;4.87;73.84;102510.59;4720559;30;19930;-74
2021/03/20 08:49:08;;;;;;;;;;;;;;;5.05;70.82;102493.31;4722636;30;19927;-75
2021/03/20 08:52:01;;;;;;;;;;;;;;;5.34;69.49;102506.91;4725368;30;19934;-73
2021/03/20 08:54:34;;;;;;;;;;;;;;;5.10;68.94;102515.28;4716912;30;20018;-74
2021/03/20 08:57:13;;;;;;;;;;;;;;;5.19;66.73;102514.72;4729903;30;19934;-72
2021/03/20 08:59:47;;;;;;;;;;;;;;;5.49;66.08;102504.53;4734526;30;19927;-72
2021/03/20 09:02:23;;;;;;;;;;;;;;;5.53;65.68;102510.38;4717098;30;19931;-72
2021/03/20 09:04:54;;;;;;;;;;;;;;;5.31;65.74;102523.78;4734632;30;19926;-73
2021/03/20 09:07:22;;;;;;;;;;;;;;;5.20;65.43;102521.00;4729620;30;19927;-72
2021/03/20 09:09:54;;;;;;;;;;;;;;;5.44;64.83;102511.81;4727253;30;19930;-72
2021/03/20 09:12:26;;;;;;;;;;;;;;;5.34;64.64;102511.53;4720319;30;19949;-71
2021/03/20 09:14:53;;;;;;;;;;;;;;;5.30;64.81;102513.91;4733529;30;20309;-72
2021/03/20 09:17:24;;;;;;;;;;;;;;;5.33;64.68;102526.28;4731608;30;19927;-71
2021/03/20 09:19:52;;;;;;;;;;;;;;;5.38;64.68;102520.94;4716461;30;19942;-71
2021/03/20 09:22:21;;;;;;;;;;;;;;;5.30;64.92;102519.38;4728116;30;19930;-72
2021/03/20 09:24:49;;;;;;;;;;;;;;;5.62;64.70;102508.97;4730256;30;19934;-74
2021/03/20 09:27:35;;;;;;;;;;;;;;;5.52;64.16;102500.53;4734121;30;19934;-74
2021/03/20 09:30:13;;;;;;;;;;;;;;;5.65;63.68;102511.19;4737742;30;19926;-73
2021/03/20 09:32:47;;;;;;;;;;;;;;;5.62;62.74;102511.69;4750362;30;20318;-74
2021/03/20 09:35:22;;;;;;;;;;;;;;;5.64;62.72;102525.97;4722554;30;19937;-76
2021/03/20 09:37:51;;;;;;;;;;;;;;;5.68;62.57;102511.56;4724292;30;19930;-72
2021/03/20 09:40:36;;;;;;;;;;;;;;;5.78;62.62;102519.19;4750509;30;19947;-70
2021/03/20 09:43:15;;;;;;;;;;;;;;;5.77;62.73;102522.97;4747392;30;19932;-73
2021/03/20 09:46:09;;;;;;;;;;;;;;;5.49;63.88;102517.41;4754275;30;19925;-69
2021/03/20 09:48:44;;;;;;;;;;;;;;;5.70;63.46;102505.88;4756359;30;19926;-70
2021/03/20 09:51:30;;;;;;;;;;;;;;;6.21;62.56;102510.59;4738605;30;19926;-66
2021/03/20 09:54:11;;;;;;;;;;;;;;;6.14;61.96;102507.16;4745163;30;19933;-66
2021/03/20 09:56:38;;;;;;;;;;;;;;;5.95;62.95;102511.13;4736811;30;19955;-68
2021/03/20 09:59:07;;;;;;;;;;;;;;;6.37;61.98;102518.91;4742441;30;19926;-69
2021/03/20 10:01:43;;;;;;;;;;;;;;;5.87;63.38;102506.03;4752935;30;20442;-71
2021/03/20 10:04:13;;;;;;;;;;;;;;;6.13;62.40;102519.19;4743232;30;20252;-72
2021/03/20 10:06:41;;;;;;;;;;;;;;;6.05;63.07;102520.38;4751540;30;19932;-67
2021/03/20 10:09:08;;;;;;;;;;;;;;;6.00;62.62;102536.69;4756433;30;19933;-72
2021/03/20 10:11:38;;;;;;;;;;;;;;;5.89;63.04;102523.88;4760981;30;19933;-70
2021/03/20 10:14:24;;;;;;;;;;;;;;;5.94;62.71;102517.66;4721484;30;19934;-69
2021/03/20 10:17:05;;;;;;;;;;;;;;;6.13;61.74;102528.25;4743722;30;19925;-69
2021/03/20 10:19:36;;;;;;;;;;;;;;;5.97;61.89;102523.50;4754801;30;19933;-66
2021/03/20 10:22:06;;;;;;;;;;;;;;;6.13;61.28;102525.50;4733418;30;20375;-65
2021/03/20 10:24:33;;;;;;;;;;;;;;;6.13;60.13;102528.25;4718019;30;20661;-71
2021/03/20 10:27:06;;;;;;;;;;;;;;;6.41;59.90;102525.56;4738856;30;19933;-65
2021/03/20 10:29:38;;;;;;;;;;;;;;;6.37;60.21;102520.81;4720743;30;19926;-65
2021/03/20 10:32:21;;;;;;;;;;;;;;;6.54;59.93;102513.50;4750407;30;19926;-64
2021/03/20 10:34:54;;;;;;;;;;;;;;;6.29;59.45;102527.50;4751708;30;20013;-67
2021/03/20 10:37:31;;;;;;;;;;;;;;;6.43;58.91;102515.19;4735104;30;19926;-67
2021/03/20 10:40:04;;;;;;;;;;;;;;;6.68;58.77;102517.59;4764765;30;19926;-65
2021/03/20 10:42:32;;;;;;;;;;;;;;;6.64;59.10;102520.00;4758324;30;20615;-66
2021/03/20 10:45:04;;;;;;;;;;;;;;;6.59;59.21;102522.66;4734343;30;19925;-65
2021/03/20 10:47:31;;;;;;;;;;;;;;;6.57;59.34;102508.38;4736031;30;19930;-68
2021/03/20 10:50:01;;;;;;;;;;;;;;;6.93;57.97;102500.84;4744695;30;19926;-64
2021/03/20 10:52:32;;;;;;;;;;;;;;;6.88;58.24;102503.47;4744848;30;20008;-68
2021/03/20 10:55:00;;;;;;;;;;;;;;;6.76;58.19;102517.25;4736112;30;20405;-67
2021/03/20 10:57:30;;;;;;;;;;;;;;;6.36;59.30;102511.75;4738966;30;19925;-66
2021/03/20 10:59:57;;;;;;;;;;;;;;;6.33;59.91;102505.97;4745557;30;20147;-66
2021/03/20 11:02:36;;;;;;;;;;;;;;;6.18;58.92;102501.00;4750034;30;20387;-65
2021/03/20 11:05:09;;;;;;;;;;;;;;;6.41;59.45;102490.00;4749660;30;20414;-66
2021/03/20 11:07:48;;;;;;;;;;;;;;;6.58;57.51;102496.34;4749430;30;19926;-66
2021/03/20 11:10:43;;;;;;;;;;;;;;;6.58;57.58;102499.09;4751686;30;19929;-67
2021/03/20 11:13:16;;;;;;;;;;;;;;;6.55;57.23;102494.13;4749915;30;20410;-64
2021/03/20 11:15:46;;;;;;;;;;;;;;;6.26;57.32;102494.31;4749009;30;19933;-65
2021/03/20 11:18:16;;;;;;;;;;;;;;;6.41;57.69;102487.25;4734886;30;19926;-67
2021/03/20 11:20:45;;;;;;;;;;;;;;;6.67;57.30;102499.53;4723065;30;19926;-66
2021/03/20 11:23:28;;;;;;;;;;;;;;;6.72;57.17;102495.00;4753270;30;19949;-66
2021/03/20 11:25:55;;;;;;;;;;;;;;;6.61;57.71;102501.34;4736800;30;19933;-67
2021/03/20 11:28:29;;;;;;;;;;;;;;;6.82;57.73;102488.84;4752132;30;19927;-67
2021/03/20 11:30:59;;;;;;;;;;;;;;;6.94;57.01;102494.31;4730201;30;19937;-67
2021/03/20 11:33:30;;;;;;;;;;;;;;;6.73;57.22;102493.06;4746560;30;19926;-73
2021/03/20 11:35:59;;;;;;;;;;;;;;;6.42;57.34;102507.22;4728110;30;19926;-67
2021/03/20 11:38:26;;;;;;;;;;;;;;;6.59;56.71;102502.66;4745974;30;19933;-73
2021/03/20 11:41:02;;;;;;;;;;;;;;;6.51;56.46;102484.72;4736879;30;19926;-71
2021/03/20 11:43:35;;;;;;;;;;;;;;;6.54;56.02;102488.84;4748437;30;19926;-73
2021/03/20 11:46:09;;;;;;;;;;;;;;;6.54;57.39;102489.69;4719189;30;19933;-71
2021/03/20 11:48:44;;;;;;;;;;;;;;;6.66;57.43;102490.47;4727812;30;19934;-66
2021/03/20 11:51:12;;;;;;;;;;;;;;;6.85;56.04;102480.97;4720909;30;20303;-74
2021/03/20 11:53:45;;;;;;;;;;;;;;;6.95;55.08;102491.31;4749924;30;19926;-73
2021/03/20 11:56:15;;;;;;;;;;;;;;;6.99;55.28;102494.38;4717601;30;19930;-70
2021/03/20 11:58:48;;;;;;;;;;;;;;;6.69;56.52;102489.16;4736093;30;20021;-69
2021/03/20 12:01:24;;;;;;;;;;;;;;;6.64;57.08;102480.88;4733983;30;19933;-64
2021/03/20 12:03:52;;;;;;;;;;;;;;;6.94;56.24;102467.72;4715779;30;19949;-65
2021/03/20 12:06:26;;;;;;;;;;;;;;;6.69;56.04;102462.59;4731411;30;19930;-69
2021/03/20 12:09:13;;;;;;;;;;;;;;;6.80;55.73;102471.84;4731274;30;19926;-67
2021/03/20 12:11:44;;;;;;;;;;;;;;;6.62;55.88;102463.84;4713494;30;19930;-70
2021/03/20 12:14:29;;;;;;;;;;;;;;;6.74;56.22;102462.72;4749607;30;20290;-72
2021/03/20 12:17:01;;;;;;;;;;;;;;;7.02;55.53;102461.00;4746734;30;19926;-68
2021/03/20 12:19:28;;;;;;;;;;;;;;;7.34;55.21;102456.63;4749946;30;20126;-65
2021/03/20 12:21:58;;;;;;;;;;;;;;;7.30;54.67;102447.25;4733875;30;19926;-65
2021/03/20 12:24:27;;;;;;;;;;;;;;;7.32;53.94;102451.38;4747311;30;20040;-66
2021/03/20 12:26:54;;;;;;;;;;;;;;;7.50;53.08;102453.88;4746958;30;19930;-67
2021/03/20 12:29:21;;;;;;;;;;;;;;;7.33;54.04;102449.47;4747360;30;19926;-65
2021/03/20 12:31:47;;;;;;;;;;;;;;;7.30;54.01;102445.34;4734538;30;19933;-65
2021/03/20 12:34:14;;;;;;;;;;;;;;;7.12;53.45;102439.25;4747440;30;19934;-67
2021/03/20 12:36:49;;;;;;;;;;;;;;;7.02;52.40;102428.97;4747721;30;19926;-64
2021/03/20 12:39:15;;;;;;;;;;;;;;;6.87;53.11;102434.16;4742849;30;20410;-71
2021/03/20 12:41:44;;;;;;;;;;;;;;;7.04;52.83;102426.81;4734759;30;19927;-71
2021/03/20 12:44:18;;;;;;;;;;;;;;;7.35;52.61;102409.78;4732979;30;19930;-68
2021/03/20 12:46:46;;;;;;;;;;;;;;;7.34;52.38;102426.50;4748009;30;20504;-67
2021/03/20 12:49:17;;;;;;;;;;;;;;;7.47;51.98;102413.25;4744311;30;19933;-70
2021/03/20 12:51:44;;;;;;;;;;;;;;;7.53;52.03;102408.69;4706419;30;19930;-71
2021/03/20 12:54:18;;;;;;;;;;;;;;;7.68;52.02;102404.25;4732598;30;20315;-70
2021/03/20 12:56:46;;;;;;;;;;;;;;;7.99;51.14;102408.22;4732824;30;19930;-70
2021/03/20 12:59:12;;;;;;;;;;;;;;;7.92;50.81;102402.91;4748296;30;19930;-71
2021/03/20 13:01:39;;;;;;;;;;;;;;;8.00;50.67;102416.19;4734087;30;19938;-69
2021/03/20 13:04:06;;;;;;;;;;;;;;;7.86;51.14;102405.84;4715978;30;20322;-68
2021/03/20 13:06:33;;;;;;;;;;;;;;;8.12;51.12;102399.59;4747277;30;19930;-67
2021/03/20 13:09:01;;;;;;;;;;;;;;;7.90;51.08;102399.59;4747649;30;19926;-65
2021/03/20 13:11:28;;;;;;;;;;;;;;;8.09;50.56;102407.53;4748126;30;20401;-66
2021/03/20 13:13:55;;;;;;;;;;;;;;;8.07;50.40;102398.72;4728899;30;19930;-65